createdAt,value
2019-03-19T00:00:01.078Z,1.43
2019-03-19T00:05:01.378Z,1.40
2019-03-19T00:10:01.078Z,1.37
2019-03-19T00:15:01.065Z,1.43
2019-03-19T00:20:01.424Z,1.50
2019-03-19T00:25:01.102Z,1.46
2019-03-19T00:30:01.438Z,1.42
2019-03-19T00:35:01.072Z,1.39
2019-03-19T00:40:01.458Z,1.39
2019-03-19T00:45:01.074Z,1.39
2019-03-19T00:50:01.451Z,1.42
2019-03-19T00:55:01.097Z,1.34
2019-03-19T01:00:01.111Z,1.30
2019-03-19T01:05:01.096Z,1.28
2019-03-19T01:10:01.151Z,1.27
2019-03-19T01:15:01.113Z,1.23
2019-03-19T01:20:01.105Z,1.27
2019-03-19T01:25:01.107Z,1.21
2019-03-19T01:30:19.267Z,1.19
2019-03-19T01:35:01.064Z,1.24
2019-03-19T01:40:01.104Z,1.21
2019-03-19T01:45:01.472Z,1.15
2019-03-19T01:50:01.129Z,1.11
2019-03-19T01:55:01.110Z,1.11
2019-03-19T02:00:01.448Z,1.14
2019-03-19T02:05:01.100Z,1.09
2019-03-19T02:10:01.515Z,1.05
2019-03-19T02:15:01.496Z,1.01
2019-03-19T02:20:01.084Z,0.95
2019-03-19T02:25:01.085Z,0.85
2019-03-19T02:30:01.098Z,0.84
2019-03-19T02:35:01.095Z,0.83
2019-03-19T02:40:01.073Z,0.82
2019-03-19T02:45:01.108Z,0.78
2019-03-19T02:50:01.096Z,0.78
2019-03-19T02:55:01.076Z,0.73
2019-03-19T03:00:01.125Z,0.78
2019-03-19T03:05:01.121Z,0.81
2019-03-19T03:10:01.096Z,0.66
2019-03-19T03:15:01.109Z,0.58
2019-03-19T03:20:01.528Z,0.45
2019-03-19T03:25:01.092Z,0.39
2019-03-19T03:30:01.365Z,0.36
2019-03-19T03:35:01.657Z,0.33
2019-03-19T03:40:01.055Z,0.37
2019-03-19T03:45:01.093Z,0.36
2019-03-19T03:50:01.478Z,0.26
2019-03-19T03:55:01.095Z,0.23
2019-03-19T04:00:01.132Z,0.21
2019-03-19T04:05:01.591Z,0.17
2019-03-19T04:10:01.109Z,0.16
2019-03-19T04:15:01.104Z,0.07
2019-03-19T04:20:01.482Z,0.03
2019-03-19T04:25:01.099Z,-0.01
2019-03-19T04:30:01.085Z,0.01
2019-03-19T04:35:01.103Z,-0.03
2019-03-19T04:40:01.097Z,-0.06
2019-03-19T04:45:01.085Z,-0.06
2019-03-19T04:50:01.435Z,-0.05
2019-03-19T04:55:01.100Z,-0.10
2019-03-19T05:00:01.118Z,-0.08
2019-03-19T05:05:10.365Z,-0.07
2019-03-19T05:10:01.094Z,-0.04
2019-03-19T05:15:01.173Z,0.00
2019-03-19T05:20:01.549Z,-0.02
2019-03-19T05:25:01.231Z,0.03
2019-03-19T05:30:01.408Z,0.06
2019-03-19T05:35:01.197Z,0.12
2019-03-19T05:40:01.103Z,0.15
2019-03-19T05:45:01.354Z,0.19
2019-03-19T05:50:01.557Z,0.25
2019-03-19T05:55:01.084Z,0.28
2019-03-19T06:00:01.495Z,0.33
2019-03-19T06:05:01.086Z,0.41
2019-03-19T06:10:01.119Z,0.45
2019-03-19T06:15:01.106Z,0.51
2019-03-19T06:20:01.576Z,0.58
2019-03-19T06:25:01.107Z,0.63
2019-03-19T06:30:01.132Z,0.71
2019-03-19T06:35:01.704Z,0.82
2019-03-19T06:40:01.092Z,0.95
2019-03-19T06:45:01.098Z,1.08
2019-03-19T06:50:01.945Z,1.26
2019-03-19T06:55:01.097Z,1.37
2019-03-19T07:00:01.606Z,1.40
2019-03-19T07:05:01.458Z,1.56
2019-03-19T07:10:01.064Z,1.60
2019-03-19T07:15:01.107Z,1.75
2019-03-19T07:20:01.116Z,1.95
2019-03-19T07:25:01.598Z,2.06
2019-03-19T07:30:01.083Z,2.21
2019-03-19T07:35:01.070Z,2.46
2019-03-19T07:40:01.078Z,2.63
2019-03-19T07:45:01.091Z,2.83
2019-03-19T07:50:01.104Z,3.22
2019-03-19T07:55:01.097Z,3.54
2019-03-19T08:00:01.127Z,3.71
2019-03-19T08:05:01.396Z,3.90
2019-03-19T08:10:01.135Z,4.08
2019-03-19T08:15:01.466Z,4.15
2019-03-19T08:20:01.086Z,4.66
2019-03-19T08:25:01.072Z,4.95
2019-03-19T08:30:01.114Z,4.91
2019-03-19T08:35:01.086Z,5.09
2019-03-19T08:40:01.108Z,5.34
2019-03-19T08:45:01.096Z,5.77
2019-03-19T08:50:14.654Z,6.30
2019-03-19T08:55:01.101Z,6.40
2019-03-19T09:00:01.134Z,6.66
2019-03-19T09:05:03.096Z,6.84
2019-03-19T09:10:01.106Z,7.21
2019-03-19T09:15:01.407Z,7.43
2019-03-19T09:20:01.110Z,7.30
2019-03-19T09:25:01.124Z,7.27
2019-03-19T09:30:01.483Z,7.34
2019-03-19T09:35:01.551Z,7.50
2019-03-19T09:40:01.143Z,7.47
2019-03-19T09:45:01.073Z,7.85
2019-03-19T09:50:01.062Z,8.00
2019-03-19T09:55:01.094Z,7.98
2019-03-19T10:00:01.114Z,7.74
2019-03-19T10:05:01.156Z,7.40
2019-03-19T10:10:01.554Z,7.46
2019-03-19T10:15:01.548Z,7.47
2019-03-19T10:20:01.117Z,7.53
2019-03-19T10:25:01.152Z,7.76
2019-03-19T10:30:01.094Z,7.85
2019-03-19T10:35:01.077Z,7.95
2019-03-19T10:40:02.153Z,8.10
2019-03-19T10:45:01.142Z,8.44
2019-03-19T10:50:01.119Z,8.47
2019-03-19T10:55:02.721Z,8.55
2019-03-19T11:00:01.131Z,8.32
2019-03-19T11:05:01.146Z,8.41
2019-03-19T11:10:01.103Z,8.35
2019-03-19T11:15:01.099Z,8.53
2019-03-19T11:20:01.407Z,8.30
2019-03-19T11:25:01.136Z,8.50
2019-03-19T11:30:01.238Z,8.33
2019-03-19T11:35:01.059Z,8.35
2019-03-19T11:40:01.119Z,8.09
2019-03-19T11:45:01.121Z,7.80
2019-03-19T11:50:01.161Z,7.72
2019-03-19T11:55:01.138Z,7.53
2019-03-19T12:00:10.815Z,7.51
2019-03-19T12:05:01.085Z,7.49
2019-03-19T12:10:01.122Z,7.14
2019-03-19T12:15:01.087Z,6.70
2019-03-19T12:20:01.092Z,6.49
2019-03-19T12:25:01.129Z,6.46
2019-03-19T12:30:01.167Z,6.63
2019-03-19T12:35:01.857Z,6.75
2019-03-19T12:40:01.149Z,6.98
2019-03-19T12:45:01.135Z,7.27
2019-03-19T12:50:01.123Z,7.55
2019-03-19T12:55:01.102Z,7.75
2019-03-19T13:00:01.310Z,8.09
2019-03-19T13:05:01.098Z,8.81
2019-03-19T13:10:01.341Z,8.29
2019-03-19T13:15:01.091Z,8.18
2019-03-19T13:25:01.097Z,8.44
2019-03-19T13:45:01.092Z,7.93
2019-03-19T14:10:01.152Z,7.84
2019-03-19T14:25:01.084Z,6.87
2019-03-19T14:35:01.102Z,7.69
2019-03-19T14:55:01.109Z,7.45
2019-03-19T15:05:01.056Z,7.73
2019-03-19T15:20:01.498Z,7.88
2019-03-19T15:50:01.080Z,7.23
2019-03-19T17:30:01.096Z,3.99
2019-03-19T18:40:01.031Z,3.10
2019-03-19T21:35:01.100Z,1.64
